sensor_id;sensor_type;location;lat;lon;timestamp;temperature;humidity
5200;DHT22;2619;47.868;11.892;2023-02-28T00:00:44;-3.50;99.90
5200;DHT22;2619;47.868;11.892;2023-02-28T00:03:10;-3.60;99.90
5200;DHT22;2619;47.868;11.892;2023-02-28T00:05:35;-3.80;99.90
5200;DHT22;2619;47.868;11.892;2023-02-28T00:08:01;-4.00;99.90
5200;DHT22;2619;47.868;11.892;2023-02-28T00:10:28;-4.20;99.90
5200;DHT22;2619;47.868;11.892;2023-02-28T00:12:58;-4.20;99.90
5200;DHT22;2619;47.868;11.892;2023-02-28T00:15:24;-4.20;99.90
5200;DHT22;2619;47.868;11.892;2023-02-28T00:17:50;-4.20;99.90
5200;DHT22;2619;47.868;11.892;2023-02-28T00:20:16;-4.20;99.90
5200;DHT22;2619;47.868;11.892;2023-02-28T00:22:47;-4.10;99.90
5200;DHT22;2619;47.868;11.892;2023-02-28T00:25:15;-4.20;99.90
5200;DHT22;2619;47.868;11.892;2023-02-28T00:27:42;-4.10;99.90
5200;DHT22;2619;47.868;11.892;2023-02-28T00:30:10;-4.10;99.90
5200;DHT22;2619;47.868;11.892;2023-02-28T00:32:36;-4.00;99.90
5200;DHT22;2619;47.868;11.892;2023-02-28T00:35:02;-4.00;99.90
5200;DHT22;2619;47.868;11.892;2023-02-28T00:37:28;-4.00;99.90
5200;DHT22;2619;47.868;11.892;2023-02-28T00:39:53;-3.90;99.90
5200;DHT22;2619;47.868;11.892;2023-02-28T00:42:19;-3.90;99.90
5200;DHT22;2619;47.868;11.892;2023-02-28T00:44:44;-3.90;99.90
5200;DHT22;2619;47.868;11.892;2023-02-28T00:47:10;-3.90;99.90
5200;DHT22;2619;47.868;11.892;2023-02-28T00:49:35;-3.80;99.90
5200;DHT22;2619;47.868;11.892;2023-02-28T00:52:01;-3.90;99.90
5200;DHT22;2619;47.868;11.892;2023-02-28T00:54:27;-4.00;99.90
5200;DHT22;2619;47.868;11.892;2023-02-28T00:56:52;-4.10;99.90
5200;DHT22;2619;47.868;11.892;2023-02-28T00:59:18;-4.20;99.90
5200;DHT22;2619;47.868;11.892;2023-02-28T01:01:45;-4.30;99.90
5200;DHT22;2619;47.868;11.892;2023-02-28T01:04:12;-4.50;99.90
5200;DHT22;2619;47.868;11.892;2023-02-28T01:06:37;-4.60;99.90
5200;DHT22;2619;47.868;11.892;2023-02-28T01:09:05;-4.80;99.90
5200;DHT22;2619;47.868;11.892;2023-02-28T01:11:31;-4.90;99.90
5200;DHT22;2619;47.868;11.892;2023-02-28T01:13:57;-5.10;99.90
5200;DHT22;2619;47.868;11.892;2023-02-28T01:16:23;-5.20;99.90
5200;DHT22;2619;47.868;11.892;2023-02-28T01:18:49;-5.20;99.90
5200;DHT22;2619;47.868;11.892;2023-02-28T01:21:17;-5.40;99.90
5200;DHT22;2619;47.868;11.892;2023-02-28T01:23:43;-5.40;99.90
5200;DHT22;2619;47.868;11.892;2023-02-28T01:26:12;-5.40;99.90
5200;DHT22;2619;47.868;11.892;2023-02-28T01:28:38;-5.50;99.90
5200;DHT22;2619;47.868;11.892;2023-02-28T01:31:03;-5.50;99.90
5200;DHT22;2619;47.868;11.892;2023-02-28T01:33:29;-5.50;99.90
5200;DHT22;2619;47.868;11.892;2023-02-28T01:36:04;-5.50;99.90
5200;DHT22;2619;47.868;11.892;2023-02-28T01:38:31;-5.60;99.90
5200;DHT22;2619;47.868;11.892;2023-02-28T01:40:56;-5.60;99.90
5200;DHT22;2619;47.868;11.892;2023-02-28T01:43:30;-5.70;99.90
5200;DHT22;2619;47.868;11.892;2023-02-28T01:45:57;-5.70;99.90
5200;DHT22;2619;47.868;11.892;2023-02-28T01:48:26;-5.80;99.90
5200;DHT22;2619;47.868;11.892;2023-02-28T01:50:53;-5.90;99.90
5200;DHT22;2619;47.868;11.892;2023-02-28T01:53:26;-5.90;99.90
5200;DHT22;2619;47.868;11.892;2023-02-28T01:55:54;-5.90;99.90
5200;DHT22;2619;47.868;11.892;2023-02-28T01:58:20;-6.00;99.90
5200;DHT22;2619;47.868;11.892;2023-02-28T02:00:46;-6.00;99.90
5200;DHT22;2619;47.868;11.892;2023-02-28T02:03:17;-6.00;99.90
5200;DHT22;2619;47.868;11.892;2023-02-28T02:05:44;-6.00;99.90
5200;DHT22;2619;47.868;11.892;2023-02-28T02:08:19;-6.00;99.90
5200;DHT22;2619;47.868;11.892;2023-02-28T02:10:48;-5.90;99.90
5200;DHT22;2619;47.868;11.892;2023-02-28T02:13:24;-5.90;99.90
5200;DHT22;2619;47.868;11.892;2023-02-28T02:24:32;-5.90;99.90
5200;DHT22;2619;47.868;11.892;2023-02-28T02:27:27;-5.90;99.90
5200;DHT22;2619;47.868;11.892;2023-02-28T02:35:14;-6.00;99.90
5200;DHT22;2619;47.868;11.892;2023-02-28T02:40:52;-6.00;99.90
5200;DHT22;2619;47.868;11.892;2023-02-28T02:43:25;-6.10;99.90
5200;DHT22;2619;47.868;11.892;2023-02-28T02:45:59;-6.10;99.90
5200;DHT22;2619;47.868;11.892;2023-02-28T02:48:30;-6.20;99.90
5200;DHT22;2619;47.868;11.892;2023-02-28T02:51:01;-6.30;99.90
5200;DHT22;2619;47.868;11.892;2023-02-28T02:53:36;-6.40;99.90
5200;DHT22;2619;47.868;11.892;2023-02-28T02:56:04;-6.50;99.90
5200;DHT22;2619;47.868;11.892;2023-02-28T02:58:34;-6.60;99.90
5200;DHT22;2619;47.868;11.892;2023-02-28T03:01:02;-6.80;99.90
5200;DHT22;2619;47.868;11.892;2023-02-28T03:03:29;-6.70;99.90
5200;DHT22;2619;47.868;11.892;2023-02-28T03:06:00;-6.80;99.90
5200;DHT22;2619;47.868;11.892;2023-02-28T03:08:28;-6.80;99.90
5200;DHT22;2619;47.868;11.892;2023-02-28T03:11:00;-6.90;99.90
5200;DHT22;2619;47.868;11.892;2023-02-28T03:30:12;-6.90;99.90
5200;DHT22;2619;47.868;11.892;2023-02-28T03:33:11;-6.90;99.90
5200;DHT22;2619;47.868;11.892;2023-02-28T03:35:57;-6.90;99.90
5200;DHT22;2619;47.868;11.892;2023-02-28T03:38:31;-6.80;99.90
5200;DHT22;2619;47.868;11.892;2023-02-28T03:41:21;-6.90;99.90
5200;DHT22;2619;47.868;11.892;2023-02-28T03:43:57;-6.90;99.90
5200;DHT22;2619;47.868;11.892;2023-02-28T03:46:25;-6.80;99.90
5200;DHT22;2619;47.868;11.892;2023-02-28T03:49:14;-6.80;99.90
5200;DHT22;2619;47.868;11.892;2023-02-28T03:51:42;-6.90;99.90
5200;DHT22;2619;47.868;11.892;2023-02-28T03:54:22;-6.80;99.90
5200;DHT22;2619;47.868;11.892;2023-02-28T03:56:53;-6.80;99.90
5200;DHT22;2619;47.868;11.892;2023-02-28T03:59:28;-6.80;99.90
5200;DHT22;2619;47.868;11.892;2023-02-28T04:01:54;-6.90;99.90
5200;DHT22;2619;47.868;11.892;2023-02-28T04:04:21;-7.00;99.90
5200;DHT22;2619;47.868;11.892;2023-02-28T04:06:51;-7.00;99.90
5200;DHT22;2619;47.868;11.892;2023-02-28T04:09:16;-6.90;99.90
5200;DHT22;2619;47.868;11.892;2023-02-28T04:14:10;-6.80;99.90
5200;DHT22;2619;47.868;11.892;2023-02-28T04:16:38;-6.80;99.90
5200;DHT22;2619;47.868;11.892;2023-02-28T04:19:06;-6.80;99.90
5200;DHT22;2619;47.868;11.892;2023-02-28T04:21:36;-6.90;99.90
5200;DHT22;2619;47.868;11.892;2023-02-28T04:24:04;-6.90;99.90
5200;DHT22;2619;47.868;11.892;2023-02-28T04:26:31;-6.90;99.90
5200;DHT22;2619;47.868;11.892;2023-02-28T04:28:57;-6.90;99.90
5200;DHT22;2619;47.868;11.892;2023-02-28T04:31:23;-6.80;99.90
5200;DHT22;2619;47.868;11.892;2023-02-28T04:33:49;-6.70;99.90
5200;DHT22;2619;47.868;11.892;2023-02-28T04:36:14;-6.60;99.90
5200;DHT22;2619;47.868;11.892;2023-02-28T04:38:43;-6.50;99.90
5200;DHT22;2619;47.868;11.892;2023-02-28T04:41:09;-6.50;99.90
5200;DHT22;2619;47.868;11.892;2023-02-28T04:43:35;-6.40;99.90
5200;DHT22;2619;47.868;11.892;2023-02-28T04:46:02;-6.40;99.90
5200;DHT22;2619;47.868;11.892;2023-02-28T04:48:29;-6.40;99.90
5200;DHT22;2619;47.868;11.892;2023-02-28T04:51:00;-6.30;99.90
5200;DHT22;2619;47.868;11.892;2023-02-28T04:53:27;-6.30;99.90
5200;DHT22;2619;47.868;11.892;2023-02-28T04:55:54;-6.10;99.90
5200;DHT22;2619;47.868;11.892;2023-02-28T04:58:20;-6.00;99.90
5200;DHT22;2619;47.868;11.892;2023-02-28T05:00:48;-5.90;99.90
5200;DHT22;2619;47.868;11.892;2023-02-28T05:03:14;-5.80;99.90
5200;DHT22;2619;47.868;11.892;2023-02-28T05:05:39;-5.70;99.90
5200;DHT22;2619;47.868;11.892;2023-02-28T05:08:05;-5.60;99.90
5200;DHT22;2619;47.868;11.892;2023-02-28T05:10:31;-5.50;99.90
5200;DHT22;2619;47.868;11.892;2023-02-28T05:12:56;-5.40;99.90
5200;DHT22;2619;47.868;11.892;2023-02-28T05:15:22;-5.20;99.90
5200;DHT22;2619;47.868;11.892;2023-02-28T05:17:47;-5.10;99.90
5200;DHT22;2619;47.868;11.892;2023-02-28T05:20:13;-4.90;99.90
5200;DHT22;2619;47.868;11.892;2023-02-28T05:22:42;-4.80;99.90
5200;DHT22;2619;47.868;11.892;2023-02-28T05:25:12;-4.70;99.90
5200;DHT22;2619;47.868;11.892;2023-02-28T05:27:38;-4.60;99.90
5200;DHT22;2619;47.868;11.892;2023-02-28T05:30:05;-4.60;99.90
5200;DHT22;2619;47.868;11.892;2023-02-28T05:32:31;-4.50;99.90
5200;DHT22;2619;47.868;11.892;2023-02-28T05:34:57;-4.50;99.90
5200;DHT22;2619;47.868;11.892;2023-02-28T05:37:22;-4.40;99.90
5200;DHT22;2619;47.868;11.892;2023-02-28T05:39:48;-4.40;99.90
5200;DHT22;2619;47.868;11.892;2023-02-28T05:42:13;-4.40;99.90
5200;DHT22;2619;47.868;11.892;2023-02-28T05:44:39;-4.40;99.90
5200;DHT22;2619;47.868;11.892;2023-02-28T05:47:04;-4.30;99.90
5200;DHT22;2619;47.868;11.892;2023-02-28T05:49:30;-4.20;99.90
5200;DHT22;2619;47.868;11.892;2023-02-28T05:51:56;-4.20;99.90
5200;DHT22;2619;47.868;11.892;2023-02-28T05:54:21;-4.00;99.90
5200;DHT22;2619;47.868;11.892;2023-02-28T05:56:47;-4.00;99.90
5200;DHT22;2619;47.868;11.892;2023-02-28T05:59:13;-4.00;99.90
5200;DHT22;2619;47.868;11.892;2023-02-28T06:01:40;-3.90;99.90
5200;DHT22;2619;47.868;11.892;2023-02-28T06:04:08;-3.80;99.90
5200;DHT22;2619;47.868;11.892;2023-02-28T06:06:35;-3.70;99.90
5200;DHT22;2619;47.868;11.892;2023-02-28T06:09:05;-3.60;99.90
5200;DHT22;2619;47.868;11.892;2023-02-28T06:11:31;-3.60;99.90
5200;DHT22;2619;47.868;11.892;2023-02-28T06:13:58;-3.60;99.90
5200;DHT22;2619;47.868;11.892;2023-02-28T06:16:28;-3.60;99.90
5200;DHT22;2619;47.868;11.892;2023-02-28T06:18:56;-3.60;99.90
5200;DHT22;2619;47.868;11.892;2023-02-28T06:21:22;-3.60;99.90
5200;DHT22;2619;47.868;11.892;2023-02-28T06:23:48;-3.50;99.90
5200;DHT22;2619;47.868;11.892;2023-02-28T06:26:14;-3.40;99.90
5200;DHT22;2619;47.868;11.892;2023-02-28T06:28:39;-3.40;99.90
5200;DHT22;2619;47.868;11.892;2023-02-28T06:31:10;-3.40;99.90
5200;DHT22;2619;47.868;11.892;2023-02-28T06:33:37;-3.40;99.90
5200;DHT22;2619;47.868;11.892;2023-02-28T06:36:04;-3.30;99.90
5200;DHT22;2619;47.868;11.892;2023-02-28T06:38:30;-3.30;99.90
5200;DHT22;2619;47.868;11.892;2023-02-28T06:40:57;-3.30;99.90
5200;DHT22;2619;47.868;11.892;2023-02-28T06:43:23;-3.20;99.90
5200;DHT22;2619;47.868;11.892;2023-02-28T06:45:49;-3.30;99.90
5200;DHT22;2619;47.868;11.892;2023-02-28T06:48:16;-3.40;99.90
5200;DHT22;2619;47.868;11.892;2023-02-28T06:50:41;-3.30;99.90
5200;DHT22;2619;47.868;11.892;2023-02-28T06:53:07;-3.40;99.90
5200;DHT22;2619;47.868;11.892;2023-02-28T06:55:38;-3.30;99.90
5200;DHT22;2619;47.868;11.892;2023-02-28T06:58:04;-3.30;99.90
5200;DHT22;2619;47.868;11.892;2023-02-28T07:00:41;-3.20;99.90
5200;DHT22;2619;47.868;11.892;2023-02-28T07:03:06;-3.20;99.90
5200;DHT22;2619;47.868;11.892;2023-02-28T07:05:34;-3.20;99.90
5200;DHT22;2619;47.868;11.892;2023-02-28T07:08:00;-3.20;99.90
5200;DHT22;2619;47.868;11.892;2023-02-28T07:10:26;-3.20;99.90
5200;DHT22;2619;47.868;11.892;2023-02-28T07:12:51;-3.10;99.90
5200;DHT22;2619;47.868;11.892;2023-02-28T07:15:17;-3.00;99.90
5200;DHT22;2619;47.868;11.892;2023-02-28T07:17:43;-2.90;99.90
5200;DHT22;2619;47.868;11.892;2023-02-28T07:20:09;-2.80;99.90
5200;DHT22;2619;47.868;11.892;2023-02-28T07:22:34;-2.80;99.90
5200;DHT22;2619;47.868;11.892;2023-02-28T07:25:00;-2.70;99.90
5200;DHT22;2619;47.868;11.892;2023-02-28T07:27:26;-2.70;99.90
5200;DHT22;2619;47.868;11.892;2023-02-28T07:29:52;-2.60;99.90
5200;DHT22;2619;47.868;11.892;2023-02-28T07:32:18;-2.40;99.90
5200;DHT22;2619;47.868;11.892;2023-02-28T07:34:44;-2.40;99.90
5200;DHT22;2619;47.868;11.892;2023-02-28T07:37:10;-2.50;99.90
5200;DHT22;2619;47.868;11.892;2023-02-28T07:39:36;-2.50;99.90
5200;DHT22;2619;47.868;11.892;2023-02-28T07:42:06;-2.30;99.90
5200;DHT22;2619;47.868;11.892;2023-02-28T07:44:31;-2.30;99.90
5200;DHT22;2619;47.868;11.892;2023-02-28T07:46:57;-2.20;99.90
5200;DHT22;2619;47.868;11.892;2023-02-28T07:49:23;-2.20;99.90
5200;DHT22;2619;47.868;11.892;2023-02-28T07:51:49;-2.00;99.90
5200;DHT22;2619;47.868;11.892;2023-02-28T07:54:14;-1.80;99.90
5200;DHT22;2619;47.868;11.892;2023-02-28T07:56:40;-1.60;99.90
5200;DHT22;2619;47.868;11.892;2023-02-28T07:59:06;-1.70;99.90
5200;DHT22;2619;47.868;11.892;2023-02-28T08:01:32;-1.90;99.90
5200;DHT22;2619;47.868;11.892;2023-02-28T08:03:57;-1.80;99.90
5200;DHT22;2619;47.868;11.892;2023-02-28T08:06:24;-1.60;99.90
5200;DHT22;2619;47.868;11.892;2023-02-28T08:08:50;-1.50;99.90
5200;DHT22;2619;47.868;11.892;2023-02-28T08:11:17;-1.60;99.90
5200;DHT22;2619;47.868;11.892;2023-02-28T08:13:43;-1.60;99.90
5200;DHT22;2619;47.868;11.892;2023-02-28T08:16:09;-1.60;99.90
5200;DHT22;2619;47.868;11.892;2023-02-28T08:18:36;-1.70;99.90
5200;DHT22;2619;47.868;11.892;2023-02-28T08:21:11;-1.50;99.90
5200;DHT22;2619;47.868;11.892;2023-02-28T08:23:37;-1.40;99.90
5200;DHT22;2619;47.868;11.892;2023-02-28T08:26:04;-1.40;99.90
5200;DHT22;2619;47.868;11.892;2023-02-28T08:28:30;-1.50;99.90
5200;DHT22;2619;47.868;11.892;2023-02-28T08:30:56;-1.60;99.90
5200;DHT22;2619;47.868;11.892;2023-02-28T08:33:23;-1.40;99.90
5200;DHT22;2619;47.868;11.892;2023-02-28T08:35:51;-1.40;99.90
5200;DHT22;2619;47.868;11.892;2023-02-28T08:38:17;-1.60;99.90
5200;DHT22;2619;47.868;11.892;2023-02-28T08:40:43;-1.50;99.90
5200;DHT22;2619;47.868;11.892;2023-02-28T08:43:08;-1.60;99.90
5200;DHT22;2619;47.868;11.892;2023-02-28T08:45:34;-1.80;99.90
5200;DHT22;2619;47.868;11.892;2023-02-28T08:47:59;-1.80;99.90
5200;DHT22;2619;47.868;11.892;2023-02-28T08:50:25;-1.80;99.90
5200;DHT22;2619;47.868;11.892;2023-02-28T08:52:51;-1.60;99.90
5200;DHT22;2619;47.868;11.892;2023-02-28T08:55:16;-1.40;99.90
5200;DHT22;2619;47.868;11.892;2023-02-28T08:57:42;-1.10;99.90
5200;DHT22;2619;47.868;11.892;2023-02-28T09:00:08;-1.10;99.90
5200;DHT22;2619;47.868;11.892;2023-02-28T09:02:34;-1.00;99.90
5200;DHT22;2619;47.868;11.892;2023-02-28T09:04:59;-0.80;99.90
5200;DHT22;2619;47.868;11.892;2023-02-28T09:07:25;-0.80;99.90
5200;DHT22;2619;47.868;11.892;2023-02-28T09:09:50;-1.10;99.90
5200;DHT22;2619;47.868;11.892;2023-02-28T09:12:20;-1.00;99.90
5200;DHT22;2619;47.868;11.892;2023-02-28T09:14:46;-0.80;99.90
5200;DHT22;2619;47.868;11.892;2023-02-28T09:17:12;-0.60;99.90
5200;DHT22;2619;47.868;11.892;2023-02-28T09:19:37;-0.50;99.90
5200;DHT22;2619;47.868;11.892;2023-02-28T09:22:03;-0.50;99.90
5200;DHT22;2619;47.868;11.892;2023-02-28T09:24:29;-0.80;99.90
5200;DHT22;2619;47.868;11.892;2023-02-28T09:26:56;-1.00;99.90
5200;DHT22;2619;47.868;11.892;2023-02-28T09:29:22;-1.00;99.90
5200;DHT22;2619;47.868;11.892;2023-02-28T09:31:48;-0.70;99.90
5200;DHT22;2619;47.868;11.892;2023-02-28T09:34:13;-0.80;99.90
5200;DHT22;2619;47.868;11.892;2023-02-28T09:36:39;-0.60;99.90
5200;DHT22;2619;47.868;11.892;2023-02-28T09:39:05;-0.80;99.90
5200;DHT22;2619;47.868;11.892;2023-02-28T09:41:39;-0.70;99.90
5200;DHT22;2619;47.868;11.892;2023-02-28T09:44:37;-0.80;99.90
5200;DHT22;2619;47.868;11.892;2023-02-28T09:47:13;-0.90;99.90
5200;DHT22;2619;47.868;11.892;2023-02-28T09:49:46;-0.70;99.90
5200;DHT22;2619;47.868;11.892;2023-02-28T09:52:23;-1.00;99.90
5200;DHT22;2619;47.868;11.892;2023-02-28T09:54:49;-0.80;99.90
5200;DHT22;2619;47.868;11.892;2023-02-28T09:57:39;-0.70;99.90
5200;DHT22;2619;47.868;11.892;2023-02-28T10:00:18;-0.60;99.90
5200;DHT22;2619;47.868;11.892;2023-02-28T10:05:20;-0.60;99.90
5200;DHT22;2619;47.868;11.892;2023-02-28T10:08:14;-0.40;99.90
5200;DHT22;2619;47.868;11.892;2023-02-28T10:10:48;-0.30;99.90
5200;DHT22;2619;47.868;11.892;2023-02-28T10:13:26;-0.30;99.90
5200;DHT22;2619;47.868;11.892;2023-02-28T10:15:57;-0.50;99.90
5200;DHT22;2619;47.868;11.892;2023-02-28T10:18:47;-0.70;99.90
5200;DHT22;2619;47.868;11.892;2023-02-28T10:21:44;-0.80;99.90
5200;DHT22;2619;47.868;11.892;2023-02-28T10:24:29;-0.70;99.90
5200;DHT22;2619;47.868;11.892;2023-02-28T10:27:01;-0.60;99.90
5200;DHT22;2619;47.868;11.892;2023-02-28T10:29:32;-0.80;99.90
5200;DHT22;2619;47.868;11.892;2023-02-28T10:32:01;-0.40;99.90
5200;DHT22;2619;47.868;11.892;2023-02-28T10:34:28;0.10;99.90
5200;DHT22;2619;47.868;11.892;2023-02-28T10:36:53;0.50;99.90
5200;DHT22;2619;47.868;11.892;2023-02-28T10:39:40;0.90;99.90
5200;DHT22;2619;47.868;11.892;2023-02-28T10:42:26;1.20;99.90
5200;DHT22;2619;47.868;11.892;2023-02-28T10:45:11;1.00;99.90
5200;DHT22;2619;47.868;11.892;2023-02-28T10:47:57;0.30;99.90
5200;DHT22;2619;47.868;11.892;2023-02-28T10:52:55;-0.30;99.90
5200;DHT22;2619;47.868;11.892;2023-02-28T10:55:30;-0.20;99.90
5200;DHT22;2619;47.868;11.892;2023-02-28T10:57:57;-0.20;99.90
5200;DHT22;2619;47.868;11.892;2023-02-28T11:00:24;0.00;99.90
5200;DHT22;2619;47.868;11.892;2023-02-28T11:02:51;0.30;99.90
5200;DHT22;2619;47.868;11.892;2023-02-28T11:05:29;0.50;99.90
5200;DHT22;2619;47.868;11.892;2023-02-28T11:08:05;0.50;99.90
5200;DHT22;2619;47.868;11.892;2023-02-28T11:10:32;0.80;99.90
5200;DHT22;2619;47.868;11.892;2023-02-28T11:13:01;1.10;99.90
5200;DHT22;2619;47.868;11.892;2023-02-28T11:15:34;1.60;99.90
5200;DHT22;2619;47.868;11.892;2023-02-28T11:18:02;1.70;99.90
5200;DHT22;2619;47.868;11.892;2023-02-28T11:20:33;2.00;99.90
5200;DHT22;2619;47.868;11.892;2023-02-28T11:23:02;2.20;99.90
5200;DHT22;2619;47.868;11.892;2023-02-28T11:25:37;2.30;99.90
5200;DHT22;2619;47.868;11.892;2023-02-28T11:28:30;2.30;99.90
5200;DHT22;2619;47.868;11.892;2023-02-28T11:31:17;2.60;99.90
5200;DHT22;2619;47.868;11.892;2023-02-28T11:36:24;2.30;99.90
5200;DHT22;2619;47.868;11.892;2023-02-28T11:38:51;1.90;99.90
5200;DHT22;2619;47.868;11.892;2023-02-28T11:46:22;1.80;99.90
5200;DHT22;2619;47.868;11.892;2023-02-28T11:52:20;0.90;99.90
5200;DHT22;2619;47.868;11.892;2023-02-28T11:55:01;0.60;99.90
5200;DHT22;2619;47.868;11.892;2023-02-28T11:58:03;0.50;99.90
5200;DHT22;2619;47.868;11.892;2023-02-28T12:09:14;1.40;99.90
5200;DHT22;2619;47.868;11.892;2023-02-28T12:14:44;1.60;99.90
5200;DHT22;2619;47.868;11.892;2023-02-28T12:19:59;1.00;99.90
5200;DHT22;2619;47.868;11.892;2023-02-28T12:27:41;1.40;99.90
5200;DHT22;2619;47.868;11.892;2023-02-28T12:30:27;1.80;99.90
5200;DHT22;2619;47.868;11.892;2023-02-28T12:32:58;1.70;99.90
5200;DHT22;2619;47.868;11.892;2023-02-28T12:35:41;1.80;99.90
5200;DHT22;2619;47.868;11.892;2023-02-28T12:38:27;1.80;99.90
5200;DHT22;2619;47.868;11.892;2023-02-28T12:40:58;1.70;99.90
5200;DHT22;2619;47.868;11.892;2023-02-28T12:43:30;2.10;99.90
5200;DHT22;2619;47.868;11.892;2023-02-28T12:48:48;1.50;99.90
5200;DHT22;2619;47.868;11.892;2023-02-28T12:51:16;1.60;99.90
5200;DHT22;2619;47.868;11.892;2023-02-28T12:59:36;0.90;99.90
5200;DHT22;2619;47.868;11.892;2023-02-28T13:05:19;1.00;99.90
5200;DHT22;2619;47.868;11.892;2023-02-28T13:10:12;1.00;99.90
5200;DHT22;2619;47.868;11.892;2023-02-28T13:12:50;1.20;99.90
5200;DHT22;2619;47.868;11.892;2023-02-28T13:15:21;1.10;99.90
5200;DHT22;2619;47.868;11.892;2023-02-28T13:17:51;1.20;99.90
5200;DHT22;2619;47.868;11.892;2023-02-28T13:20:19;1.20;99.90
5200;DHT22;2619;47.868;11.892;2023-02-28T13:22:50;1.40;99.90
5200;DHT22;2619;47.868;11.892;2023-02-28T13:28:02;2.00;99.90
5200;DHT22;2619;47.868;11.892;2023-02-28T13:38:44;1.20;99.90
5200;DHT22;2619;47.868;11.892;2023-02-28T13:47:23;1.50;99.90
5200;DHT22;2619;47.868;11.892;2023-02-28T13:54:28;1.60;99.90
5200;DHT22;2619;47.868;11.892;2023-02-28T14:05:46;2.10;99.90
5200;DHT22;2619;47.868;11.892;2023-02-28T14:08:31;1.50;99.90
5200;DHT22;2619;47.868;11.892;2023-02-28T14:11:04;1.30;99.90
5200;DHT22;2619;47.868;11.892;2023-02-28T14:13:43;1.50;99.90
5200;DHT22;2619;47.868;11.892;2023-02-28T14:16:24;1.50;99.90
5200;DHT22;2619;47.868;11.892;2023-02-28T14:19:03;1.60;99.90
5200;DHT22;2619;47.868;11.892;2023-02-28T14:21:36;1.70;99.90
5200;DHT22;2619;47.868;11.892;2023-02-28T14:32:32;1.20;99.90
5200;DHT22;2619;47.868;11.892;2023-02-28T14:37:30;1.10;99.90
5200;DHT22;2619;47.868;11.892;2023-02-28T14:39:58;1.10;99.90
5200;DHT22;2619;47.868;11.892;2023-02-28T14:42:36;1.10;99.90
5200;DHT22;2619;47.868;11.892;2023-02-28T14:45:04;1.10;99.90
5200;DHT22;2619;47.868;11.892;2023-02-28T14:47:33;1.10;99.90
5200;DHT22;2619;47.868;11.892;2023-02-28T14:50:01;1.10;99.90
5200;DHT22;2619;47.868;11.892;2023-02-28T14:52:28;1.00;99.90
5200;DHT22;2619;47.868;11.892;2023-02-28T14:55:04;1.00;99.90
5200;DHT22;2619;47.868;11.892;2023-02-28T14:57:41;1.00;99.90
5200;DHT22;2619;47.868;11.892;2023-02-28T15:00:20;1.10;99.90
5200;DHT22;2619;47.868;11.892;2023-02-28T15:02:46;1.20;99.90
5200;DHT22;2619;47.868;11.892;2023-02-28T15:07:48;1.30;99.90
5200;DHT22;2619;47.868;11.892;2023-02-28T15:10:25;1.40;99.90
5200;DHT22;2619;47.868;11.892;2023-02-28T15:12:56;1.30;99.90
5200;DHT22;2619;47.868;11.892;2023-02-28T15:15:25;1.30;99.90
5200;DHT22;2619;47.868;11.892;2023-02-28T15:17:55;1.30;99.90
5200;DHT22;2619;47.868;11.892;2023-02-28T15:20:23;1.30;99.90
5200;DHT22;2619;47.868;11.892;2023-02-28T15:22:50;1.20;99.90
5200;DHT22;2619;47.868;11.892;2023-02-28T15:25:22;1.30;99.90
5200;DHT22;2619;47.868;11.892;2023-02-28T15:27:53;1.40;99.90
5200;DHT22;2619;47.868;11.892;2023-02-28T15:30:26;1.40;99.90
5200;DHT22;2619;47.868;11.892;2023-02-28T15:35:34;1.50;99.90
5200;DHT22;2619;47.868;11.892;2023-02-28T15:40:54;1.40;99.90
5200;DHT22;2619;47.868;11.892;2023-02-28T15:43:33;1.30;99.90
5200;DHT22;2619;47.868;11.892;2023-02-28T15:46:02;1.20;99.90
5200;DHT22;2619;47.868;11.892;2023-02-28T15:48:33;1.00;99.90
5200;DHT22;2619;47.868;11.892;2023-02-28T15:53:36;0.70;99.90
5200;DHT22;2619;47.868;11.892;2023-02-28T15:56:05;0.60;99.90
5200;DHT22;2619;47.868;11.892;2023-02-28T15:58:32;0.60;99.90
5200;DHT22;2619;47.868;11.892;2023-02-28T16:01:16;0.50;99.90
5200;DHT22;2619;47.868;11.892;2023-02-28T16:03:48;0.40;99.90
5200;DHT22;2619;47.868;11.892;2023-02-28T16:06:34;0.30;99.90
5200;DHT22;2619;47.868;11.892;2023-02-28T16:09:00;0.20;99.90
5200;DHT22;2619;47.868;11.892;2023-02-28T16:11:26;0.10;99.90
5200;DHT22;2619;47.868;11.892;2023-02-28T16:13:52;0.00;99.90
5200;DHT22;2619;47.868;11.892;2023-02-28T16:16:23;-0.20;99.90
5200;DHT22;2619;47.868;11.892;2023-02-28T16:18:49;-0.30;99.90
5200;DHT22;2619;47.868;11.892;2023-02-28T16:21:15;-0.40;99.90
5200;DHT22;2619;47.868;11.892;2023-02-28T16:23:41;-0.50;99.90
5200;DHT22;2619;47.868;11.892;2023-02-28T16:26:08;-0.60;99.90
5200;DHT22;2619;47.868;11.892;2023-02-28T16:28:35;-0.60;99.90
5200;DHT22;2619;47.868;11.892;2023-02-28T16:31:03;-0.70;99.90
5200;DHT22;2619;47.868;11.892;2023-02-28T16:33:30;-0.70;99.90
5200;DHT22;2619;47.868;11.892;2023-02-28T16:35:56;-0.80;99.90
5200;DHT22;2619;47.868;11.892;2023-02-28T16:38:22;-0.80;99.90
5200;DHT22;2619;47.868;11.892;2023-02-28T16:40:50;-0.80;99.90
5200;DHT22;2619;47.868;11.892;2023-02-28T16:43:20;-0.80;99.90
5200;DHT22;2619;47.868;11.892;2023-02-28T16:45:47;-0.90;99.90
5200;DHT22;2619;47.868;11.892;2023-02-28T16:48:15;-1.00;99.90
5200;DHT22;2619;47.868;11.892;2023-02-28T16:50:41;-1.00;99.90
5200;DHT22;2619;47.868;11.892;2023-02-28T16:53:07;-1.00;99.90
5200;DHT22;2619;47.868;11.892;2023-02-28T16:55:34;-0.90;99.90
5200;DHT22;2619;47.868;11.892;2023-02-28T16:58:01;-0.90;99.90
5200;DHT22;2619;47.868;11.892;2023-02-28T17:00:29;-0.90;99.90
5200;DHT22;2619;47.868;11.892;2023-02-28T17:02:56;-0.80;99.90
5200;DHT22;2619;47.868;11.892;2023-02-28T17:05:22;-0.80;99.90
5200;DHT22;2619;47.868;11.892;2023-02-28T17:07:48;-0.70;99.90
5200;DHT22;2619;47.868;11.892;2023-02-28T17:10:17;-0.70;99.90
5200;DHT22;2619;47.868;11.892;2023-02-28T17:12:43;-0.70;99.90
5200;DHT22;2619;47.868;11.892;2023-02-28T17:15:10;-0.60;99.90
5200;DHT22;2619;47.868;11.892;2023-02-28T17:17:36;-0.50;99.90
5200;DHT22;2619;47.868;11.892;2023-02-28T17:20:03;-0.50;99.90
5200;DHT22;2619;47.868;11.892;2023-02-28T17:22:29;-0.50;99.90
5200;DHT22;2619;47.868;11.892;2023-02-28T17:24:55;-0.50;99.90
5200;DHT22;2619;47.868;11.892;2023-02-28T17:27:21;-0.40;99.90
5200;DHT22;2619;47.868;11.892;2023-02-28T17:29:47;-0.30;99.90
5200;DHT22;2619;47.868;11.892;2023-02-28T17:32:12;-0.30;99.90
5200;DHT22;2619;47.868;11.892;2023-02-28T17:34:38;-0.30;99.90
5200;DHT22;2619;47.868;11.892;2023-02-28T17:37:04;-0.20;99.90
5200;DHT22;2619;47.868;11.892;2023-02-28T17:39:29;-0.30;99.90
5200;DHT22;2619;47.868;11.892;2023-02-28T17:41:56;-0.30;99.90
5200;DHT22;2619;47.868;11.892;2023-02-28T17:44:23;-0.30;99.90
5200;DHT22;2619;47.868;11.892;2023-02-28T17:46:49;-0.30;99.90
5200;DHT22;2619;47.868;11.892;2023-02-28T17:49:15;-0.20;99.90
5200;DHT22;2619;47.868;11.892;2023-02-28T17:51:41;-0.20;99.90
5200;DHT22;2619;47.868;11.892;2023-02-28T17:54:07;-0.20;99.90
5200;DHT22;2619;47.868;11.892;2023-02-28T17:56:33;-0.20;99.90
5200;DHT22;2619;47.868;11.892;2023-02-28T17:58:58;-0.20;99.90
5200;DHT22;2619;47.868;11.892;2023-02-28T18:01:24;-0.20;99.90
5200;DHT22;2619;47.868;11.892;2023-02-28T18:03:54;-0.20;99.90
5200;DHT22;2619;47.868;11.892;2023-02-28T18:06:23;-0.20;99.90
5200;DHT22;2619;47.868;11.892;2023-02-28T18:08:49;-0.20;99.90
5200;DHT22;2619;47.868;11.892;2023-02-28T18:11:17;-0.20;99.90
5200;DHT22;2619;47.868;11.892;2023-02-28T18:13:53;-0.20;99.90
5200;DHT22;2619;47.868;11.892;2023-02-28T18:16:20;-0.10;99.90
5200;DHT22;2619;47.868;11.892;2023-02-28T18:18:47;0.00;99.90
5200;DHT22;2619;47.868;11.892;2023-02-28T18:21:16;-0.10;99.90